Time,TemperatureF,DewpointF,PressureIn,WindDirection,WindDirectionDegrees,WindSpeedMPH,WindSpeedGustMPH,Humidity,HourlyPrecipIn,Conditions,Clouds,dailyrainin,SoftwareType,DateUTC
2013-02-06 00:00:00,19.3,13.9,29.97,North,355,0.0,0.0,79,0.00,CLR,,0.00,WeatherDisplay:10.37,2013-02-06 05:00:00,
2013-02-06 00:02:00,19.2,13.8,29.98,North,355,0.0,0.0,79,0.00,CLR,,0.00,WeatherDisplay:10.37,2013-02-06 05:02:00,
2013-02-06 00:04:00,19.1,13.7,29.98,North,355,0.0,0.0,79,0.00,CLR,,0.00,WeatherDisplay:10.37,2013-02-06 05:04:00,
2013-02-06 00:09:00,18.9,13.7,29.99,North,355,0.0,0.0,80,0.00,CLR,,0.00,WeatherDisplay:10.37,2013-02-06 05:09:00,
2013-02-06 00:14:00,18.8,13.7,29.99,NNW,346,2.3,2.3,80,0.00,CLR,,0.00,WeatherDisplay:10.37,2013-02-06 05:14:00,
2013-02-06 00:19:00,19.0,14.1,29.99,NNW,345,2.3,2.3,81,0.00,CLR,,0.00,WeatherDisplay:10.37,2013-02-06 05:19:00,
2013-02-06 00:24:00,19.3,14.4,30.00,NNW,342,0.0,0.0,81,0.00,CLR,,0.00,WeatherDisplay:10.37,2013-02-06 05:24:00,
2013-02-06 00:29:00,19.4,14.2,29.99,NNW,341,0.0,0.0,80,0.00,CLR,,0.00,WeatherDisplay:10.37,2013-02-06 05:29:00,
2013-02-06 00:34:00,19.4,14.2,29.99,NNW,341,1.1,1.1,80,0.00,CLR,,0.00,WeatherDisplay:10.37,2013-02-06 05:34:00,
2013-02-06 00:39:00,19.3,14.1,30.00,NNW,341,1.1,1.1,80,0.00,CLR,,0.00,WeatherDisplay:10.37,2013-02-06 05:39:00,
2013-02-06 00:44:00,19.2,14.3,30.00,NNW,341,0.0,0.0,81,0.00,CLR,,0.00,WeatherDisplay:10.37,2013-02-06 05:44:00,
2013-02-06 00:49:00,19.0,14.1,30.00,NNW,341,0.0,0.0,81,0.00,CLR,,0.00,WeatherDisplay:10.37,2013-02-06 05:49:00,
2013-02-06 00:54:00,18.8,13.9,30.00,NNW,341,1.1,1.1,81,0.00,CLR,,0.00,WeatherDisplay:10.37,2013-02-06 05:54:00,
2013-02-06 00:59:00,18.6,14.0,30.00,NNW,341,1.1,1.1,82,0.00,CLR,,0.00,WeatherDisplay:10.37,2013-02-06 05:59:00,
2013-02-06 01:05:00,18.5,13.9,30.01,NNW,341,0.0,0.0,82,0.00,CLR,,0.00,WeatherDisplay:10.37,2013-02-06 06:05:00,
2013-02-06 01:10:00,18.6,14.0,30.01,NNW,341,2.3,2.3,82,0.00,CLR,,0.00,WeatherDisplay:10.37,2013-02-06 06:10:00,
2013-02-06 01:15:00,18.8,14.5,30.01,NNW,341,0.0,0.0,83,0.00,CLR,,0.00,WeatherDisplay:10.37,2013-02-06 06:15:00,
2013-02-06 01:20:00,18.9,14.6,30.02,NNW,341,0.0,0.0,83,0.00,CLR,,0.00,WeatherDisplay:10.37,2013-02-06 06:20:00,
2013-02-06 01:25:00,19.0,14.7,30.02,NNW,340,2.3,2.3,83,0.00,CLR,,0.00,WeatherDisplay:10.37,2013-02-06 06:25:00,
2013-02-06 01:30:00,19.0,14.4,30.02,NNW,340,0.0,0.0,82,0.00,CLR,,0.00,WeatherDisplay:10.37,2013-02-06 06:30:00,
2013-02-06 01:35:00,19.0,14.7,30.02,NNW,340,2.3,2.3,83,0.00,CLR,,0.00,WeatherDisplay:10.37,2013-02-06 06:35:00,
2013-02-06 01:40:00,19.0,14.7,30.03,NNW,340,0.0,0.0,83,0.00,CLR,,0.00,WeatherDisplay:10.37,2013-02-06 06:40:00,
2013-02-06 01:45:00,19.0,14.7,30.03,NNW,340,2.3,2.3,83,0.00,CLR,,0.00,WeatherDisplay:10.37,2013-02-06 06:45:00,
2013-02-06 01:50:00,19.1,14.8,30.03,NNW,340,0.0,0.0,83,0.00,CLR,,0.00,WeatherDisplay:10.37,2013-02-06 06:50:00,
2013-02-06 01:55:00,19.1,14.8,30.03,NNW,340,0.0,0.0,83,0.00,CLR,,0.00,WeatherDisplay:10.37,2013-02-06 06:55:00,
2013-02-06 02:00:00,19.1,14.8,30.04,NNW,340,1.1,0.0,83,0.00,CLR,,0.00,WeatherDisplay:10.37,2013-02-06 07:00:00,
2013-02-06 02:05:00,18.9,14.6,30.04,NNW,340,1.1,1.1,83,0.00,CLR,,0.00,WeatherDisplay:10.37,2013-02-06 07:05:00,
2013-02-06 02:10:00,18.9,14.6,30.04,NNW,340,0.0,0.0,83,0.00,CLR,,0.00,WeatherDisplay:10.37,2013-02-06 07:10:00,
2013-02-06 02:15:00,18.7,14.4,30.04,NNW,340,0.0,0.0,83,0.00,CLR,,0.00,WeatherDisplay:10.37,2013-02-06 07:15:00,
2013-02-06 02:20:00,18.3,14.3,30.04,NNW,340,0.0,0.0,84,0.00,CLR,,0.00,WeatherDisplay:10.37,2013-02-06 07:20:00,
2013-02-06 02:25:00,17.9,13.9,30.05,NNW,340,0.0,0.0,84,0.00,CLR,,0.00,WeatherDisplay:10.37,2013-02-06 07:25:00,
2013-02-06 02:30:00,17.5,13.8,30.05,NNW,340,0.0,0.0,85,0.00,CLR,,0.00,WeatherDisplay:10.37,2013-02-06 07:30:00,
2013-02-06 02:35:00,17.4,13.7,30.05,NNW,340,1.1,1.1,85,0.00,CLR,,0.00,WeatherDisplay:10.37,2013-02-06 07:35:00,
2013-02-06 02:40:00,17.2,13.5,30.05,NNW,340,0.0,0.0,85,0.00,CLR,,0.00,WeatherDisplay:10.37,2013-02-06 07:40:00,
2013-02-06 02:45:00,17.1,13.6,30.06,NNW,340,0.0,0.0,86,0.00,CLR,,0.00,WeatherDisplay:10.37,2013-02-06 07:45:00,
2013-02-06 02:50:00,17.1,13.6,30.06,NNW,340,0.0,0.0,86,0.00,CLR,,0.00,WeatherDisplay:10.37,2013-02-06 07:50:00,
2013-02-06 02:55:00,17.0,13.8,30.06,NNW,340,0.0,0.0,87,0.00,CLR,,0.00,WeatherDisplay:10.37,2013-02-06 07:55:00,
2013-02-06 03:00:00,16.7,13.2,30.06,NNW,340,0.0,0.0,86,0.00,CLR,,0.00,WeatherDisplay:10.37,2013-02-06 08:00:00,
2013-02-06 03:05:00,16.5,13.3,30.06,NNW,340,0.0,0.0,87,0.00,CLR,,0.00,WeatherDisplay:10.37,2013-02-06 08:05:00,
2013-02-06 03:10:00,16.2,13.0,30.06,NNW,340,0.0,0.0,87,0.00,CLR,,0.00,WeatherDisplay:10.37,2013-02-06 08:10:00,
2013-02-06 03:15:00,15.8,12.6,30.06,NNW,340,0.0,0.0,87,0.00,CLR,,0.00,WeatherDisplay:10.37,2013-02-06 08:15:00,
2013-02-06 03:20:00,15.5,12.6,30.06,NNW,340,1.1,1.1,88,0.00,CLR,,0.00,WeatherDisplay:10.37,2013-02-06 08:20:00,
2013-02-06 03:25:00,15.4,12.5,30.07,NNW,340,0.0,0.0,88,0.00,CLR,,0.00,WeatherDisplay:10.37,2013-02-06 08:25:00,
2013-02-06 03:30:00,15.2,12.3,30.07,NNW,340,0.0,0.0,88,0.00,CLR,,0.00,WeatherDisplay:10.37,2013-02-06 08:30:00,
2013-02-06 03:35:00,15.0,12.1,30.07,NNW,340,0.0,0.0,88,0.00,CLR,,0.00,WeatherDisplay:10.37,2013-02-06 08:35:00,
2013-02-06 03:40:00,14.8,11.9,30.07,NNW,340,0.0,0.0,88,0.00,CLR,,0.00,WeatherDisplay:10.37,2013-02-06 08:40:00,
2013-02-06 03:45:00,14.6,11.7,30.07,NNW,340,1.1,1.1,88,0.00,CLR,,0.00,WeatherDisplay:10.37,2013-02-06 08:45:00,
2013-02-06 03:50:00,14.5,11.9,30.07,NNW,340,0.0,0.0,89,0.00,CLR,,0.00,WeatherDisplay:10.37,2013-02-06 08:50:00,
2013-02-06 03:55:00,14.6,11.9,30.07,NNW,340,0.0,0.0,89,0.00,CLR,,0.00,WeatherDisplay:10.37,2013-02-06 08:55:00,
2013-02-06 04:00:00,14.5,11.9,30.07,NNW,340,0.0,0.0,89,0.00,CLR,,0.00,WeatherDisplay:10.37,2013-02-06 09:00:00,
2013-02-06 04:05:00,14.5,11.9,30.08,NNW,340,0.0,0.0,89,0.00,CLR,,0.00,WeatherDisplay:10.37,2013-02-06 09:05:00,
2013-02-06 04:10:00,14.3,11.7,30.08,NNW,340,0.0,0.0,89,0.00,CLR,,0.00,WeatherDisplay:10.37,2013-02-06 09:10:00,
2013-02-06 04:15:00,14.1,11.5,30.08,NNW,340,0.0,0.0,89,0.00,CLR,,0.00,WeatherDisplay:10.37,2013-02-06 09:15:00,
2013-02-06 04:20:00,13.9,11.3,30.09,NNW,340,0.0,0.0,89,0.00,CLR,,0.00,WeatherDisplay:10.37,2013-02-06 09:20:00,
2013-02-06 04:25:00,13.7,11.1,30.09,NNW,340,0.0,0.0,89,0.00,CLR,,0.00,WeatherDisplay:10.37,2013-02-06 09:25:00,
2013-02-06 04:30:00,13.6,11.0,30.09,NNW,340,0.0,0.0,89,0.00,CLR,,0.00,WeatherDisplay:10.37,2013-02-06 09:30:00,
2013-02-06 04:35:00,13.4,10.8,30.10,NNW,340,0.0,0.0,89,0.00,CLR,,0.00,WeatherDisplay:10.37,2013-02-06 09:35:00,
2013-02-06 04:40:00,13.0,10.1,30.11,NNW,340,0.0,0.0,88,0.00,CLR,,0.00,WeatherDisplay:10.37,2013-02-06 09:40:00,
2013-02-06 04:45:00,12.9,10.3,30.11,NNW,340,1.1,1.1,89,0.00,CLR,,0.00,WeatherDisplay:10.37,2013-02-06 09:45:00,
2013-02-06 04:50:00,13.2,10.6,30.11,NNW,340,0.0,0.0,89,0.00,CLR,,0.00,WeatherDisplay:10.37,2013-02-06 09:50:00,
2013-02-06 04:55:00,13.3,10.7,30.11,NNW,340,0.0,0.0,89,0.00,CLR,,0.00,WeatherDisplay:10.37,2013-02-06 09:55:00,
2013-02-06 05:00:00,13.4,10.8,30.12,NNW,340,0.0,0.0,89,0.00,CLR,,0.00,WeatherDisplay:10.37,2013-02-06 10:00:00,
2013-02-06 05:05:00,13.4,10.5,30.12,NNW,340,0.0,0.0,88,0.00,CLR,,0.00,WeatherDisplay:10.37,2013-02-06 10:05:00,
2013-02-06 05:10:00,13.1,10.2,30.12,NNW,340,0.0,0.0,88,0.00,CLR,,0.00,WeatherDisplay:10.37,2013-02-06 10:10:00,
2013-02-06 05:15:00,12.8,9.9,30.12,NNW,340,0.0,0.0,88,0.00,CLR,,0.00,WeatherDisplay:10.37,2013-02-06 10:15:00,
2013-02-06 05:20:00,12.5,9.6,30.13,NNW,340,2.3,2.3,88,0.00,CLR,,0.00,WeatherDisplay:10.37,2013-02-06 10:20:00,
2013-02-06 05:25:00,12.4,9.5,30.13,NNW,340,0.0,0.0,88,0.00,CLR,,0.00,WeatherDisplay:10.37,2013-02-06 10:25:00,
2013-02-06 05:30:00,12.1,9.0,30.14,NNW,340,0.0,0.0,87,0.00,CLR,,0.00,WeatherDisplay:10.37,2013-02-06 10:30:00,
2013-02-06 05:35:00,11.5,8.4,30.14,NNW,340,0.0,0.0,87,0.00,CLR,,0.00,WeatherDisplay:10.37,2013-02-06 10:35:00,
2013-02-06 05:40:00,10.9,7.8,30.14,NNW,340,0.0,0.0,87,0.00,CLR,,0.00,WeatherDisplay:10.37,2013-02-06 10:40:00,
2013-02-06 05:45:00,10.4,7.6,30.14,NNW,340,0.0,0.0,88,0.00,CLR,,0.00,WeatherDisplay:10.37,2013-02-06 10:45:00,
2013-02-06 05:50:00,10.3,7.5,30.14,NNW,340,0.0,0.0,88,0.00,CLR,,0.00,WeatherDisplay:10.37,2013-02-06 10:50:00,
2013-02-06 05:55:00,10.0,7.4,30.14,NNW,340,0.0,0.0,89,0.00,CLR,,0.00,WeatherDisplay:10.37,2013-02-06 10:55:00,
2013-02-06 06:00:00,9.8,7.2,30.14,NNW,340,0.0,0.0,89,0.00,CLR,,0.00,WeatherDisplay:10.37,2013-02-06 11:00:00,
2013-02-06 06:05:00,9.1,6.3,30.15,NNW,340,0.0,0.0,88,0.00,CLR,,0.00,WeatherDisplay:10.37,2013-02-06 11:05:00,
2013-02-06 06:10:00,8.3,5.5,30.15,NNW,340,0.0,0.0,88,0.00,CLR,,0.00,WeatherDisplay:10.37,2013-02-06 11:10:00,
2013-02-06 06:15:00,8.0,5.2,30.16,NNW,340,0.0,0.0,88,0.00,CLR,,0.00,WeatherDisplay:10.37,2013-02-06 11:15:00,
2013-02-06 06:20:00,7.8,5.2,30.16,NNW,340,0.0,0.0,89,0.00,CLR,,0.00,WeatherDisplay:10.37,2013-02-06 11:20:00,
2013-02-06 06:25:00,7.5,4.9,30.16,NNW,340,0.0,0.0,89,0.00,CLR,,0.00,WeatherDisplay:10.37,2013-02-06 11:25:00,
2013-02-06 06:30:00,7.3,4.7,30.16,NNW,340,0.0,0.0,89,0.00,CLR,,0.00,WeatherDisplay:10.37,2013-02-06 11:30:00,
2013-02-06 06:35:00,7.2,4.6,30.16,NNW,340,0.0,0.0,89,0.00,CLR,,0.00,WeatherDisplay:10.37,2013-02-06 11:35:00,
2013-02-06 06:40:00,7.2,4.9,30.16,NNW,340,0.0,0.0,90,0.00,CLR,,0.00,WeatherDisplay:10.37,2013-02-06 11:40:00,
2013-02-06 06:45:00,7.0,4.7,30.17,NNW,340,0.0,0.0,90,0.00,CLR,,0.00,WeatherDisplay:10.37,2013-02-06 11:45:00,
2013-02-06 06:50:00,6.8,4.2,30.17,NNW,340,0.0,0.0,89,0.00,CLR,,0.00,WeatherDisplay:10.37,2013-02-06 11:50:00,
2013-02-06 06:55:00,6.5,3.9,30.17,NNW,340,0.0,0.0,89,0.00,CLR,,0.00,WeatherDisplay:10.37,2013-02-06 11:55:00,
2013-02-06 07:00:00,6.1,3.6,30.18,NNW,340,0.0,0.0,89,0.00,CLR,,0.00,WeatherDisplay:10.37,2013-02-06 12:00:00,
2013-02-06 07:05:00,5.8,3.3,30.18,NNW,340,0.0,0.0,89,0.00,CLR,,0.00,WeatherDisplay:10.37,2013-02-06 12:05:00,
2013-02-06 07:10:00,5.6,3.1,30.18,NNW,340,0.0,0.0,89,0.00,CLR,,0.00,WeatherDisplay:10.37,2013-02-06 12:10:00,
2013-02-06 07:15:00,5.4,2.9,30.19,NNW,340,0.0,0.0,89,0.00,CLR,,0.00,WeatherDisplay:10.37,2013-02-06 12:15:00,
2013-02-06 07:20:00,5.4,2.9,30.19,NNW,340,0.0,0.0,89,0.00,CLR,,0.00,WeatherDisplay:10.37,2013-02-06 12:20:00,
2013-02-06 07:25:00,5.3,2.8,30.19,NNW,340,0.0,0.0,89,0.00,CLR,,0.00,WeatherDisplay:10.37,2013-02-06 12:25:00,
2013-02-06 07:30:00,5.2,2.7,30.19,NNW,340,0.0,0.0,89,0.00,CLR,,0.00,WeatherDisplay:10.37,2013-02-06 12:30:00,
2013-02-06 07:35:00,5.1,2.6,30.19,NNW,340,0.0,0.0,89,0.00,CLR,,0.00,WeatherDisplay:10.37,2013-02-06 12:35:00,
2013-02-06 07:40:00,4.7,2.2,30.19,NNW,340,0.0,0.0,89,0.00,CLR,,0.00,WeatherDisplay:10.37,2013-02-06 12:40:00,
2013-02-06 07:45:00,4.5,2.0,30.20,NNW,340,0.0,0.0,89,0.00,CLR,,0.00,WeatherDisplay:10.37,2013-02-06 12:45:00,
2013-02-06 07:50:00,4.5,2.0,30.20,NNW,340,0.0,0.0,89,0.00,CLR,,0.00,WeatherDisplay:10.37,2013-02-06 12:50:00,
2013-02-06 07:55:00,4.3,1.8,30.20,NNW,340,0.0,0.0,89,0.00,CLR,,0.00,WeatherDisplay:10.37,2013-02-06 12:55:00,
2013-02-06 08:00:00,4.2,1.7,30.20,NNW,340,0.0,0.0,89,0.00,CLR,,0.00,WeatherDisplay:10.37,2013-02-06 13:00:00,
2013-02-06 08:05:00,4.2,1.7,30.20,NNW,340,0.0,0.0,89,0.00,CLR,,0.00,WeatherDisplay:10.37,2013-02-06 13:05:00,
2013-02-06 08:10:00,4.1,1.6,30.20,NNW,340,0.0,0.0,89,0.00,CLR,,0.00,WeatherDisplay:10.37,2013-02-06 13:10:00,
2013-02-06 08:15:00,4.1,1.6,30.20,NNW,340,0.0,0.0,89,0.00,CLR,,0.00,WeatherDisplay:10.37,2013-02-06 13:15:00,
2013-02-06 08:20:00,4.0,1.5,30.20,NNW,340,0.0,0.0,89,0.00,CLR,,0.00,WeatherDisplay:10.37,2013-02-06 13:20:00,
2013-02-06 08:25:00,4.1,1.6,30.20,NNW,340,0.0,0.0,89,0.00,CLR,,0.00,WeatherDisplay:10.37,2013-02-06 13:25:00,
2013-02-06 08:30:00,4.5,2.0,30.20,NNW,340,0.0,0.0,89,0.00,CLR,,0.00,WeatherDisplay:10.37,2013-02-06 13:30:00,
2013-02-06 08:35:00,5.2,2.7,30.20,NNW,340,0.0,0.0,89,0.00,CLR,,0.00,WeatherDisplay:10.37,2013-02-06 13:35:00,
2013-02-06 08:40:00,5.7,3.2,30.20,NNW,340,0.0,0.0,89,0.00,CLR,,0.00,WeatherDisplay:10.37,2013-02-06 13:40:00,
2013-02-06 08:45:00,6.1,3.6,30.20,NNW,340,0.0,0.0,89,0.00,CLR,,0.00,WeatherDisplay:10.37,2013-02-06 13:45:00,
2013-02-06 08:50:00,6.5,3.9,30.20,NNW,340,0.0,0.0,89,0.00,CLR,,0.00,WeatherDisplay:10.37,2013-02-06 13:50:00,
2013-02-06 08:55:00,7.1,4.5,30.19,NNW,340,0.0,0.0,89,0.00,CLR,,0.00,WeatherDisplay:10.37,2013-02-06 13:55:00,
2013-02-06 09:00:00,7.4,4.8,30.20,NNW,340,0.0,0.0,89,0.00,CLR,,0.00,WeatherDisplay:10.37,2013-02-06 14:00:00,
2013-02-06 09:05:00,7.8,5.2,30.22,NNW,340,0.0,0.0,89,0.00,CLR,,0.00,WeatherDisplay:10.37,2013-02-06 14:05:00,
2013-02-06 09:10:00,8.3,5.7,30.22,NNW,340,0.0,0.0,89,0.00,CLR,,0.00,WeatherDisplay:10.37,2013-02-06 14:10:00,
2013-02-06 09:15:00,9.2,6.6,30.22,NNW,340,1.1,1.1,89,0.00,CLR,,0.00,WeatherDisplay:10.37,2013-02-06 14:15:00,
2013-02-06 09:20:00,10.1,7.8,30.23,NNW,340,0.0,0.0,90,0.00,CLR,,0.00,WeatherDisplay:10.37,2013-02-06 14:20:00,
2013-02-06 09:25:00,11.4,9.0,30.23,NNW,340,0.0,0.0,90,0.00,CLR,,0.00,WeatherDisplay:10.37,2013-02-06 14:25:00,
2013-02-06 09:30:00,12.9,10.8,30.23,NNW,340,2.3,2.3,91,0.00,CLR,,0.00,WeatherDisplay:10.37,2013-02-06 14:30:00,
2013-02-06 09:35:00,14.2,12.1,30.23,NNW,340,0.0,0.0,91,0.00,CLR,,0.00,WeatherDisplay:10.37,2013-02-06 14:35:00,
2013-02-06 09:40:00,15.1,12.7,30.23,NNW,340,2.3,2.3,90,0.00,CLR,,0.00,WeatherDisplay:10.37,2013-02-06 14:40:00,
2013-02-06 09:45:00,15.8,13.4,30.23,NNW,340,0.0,0.0,90,0.00,CLR,,0.00,WeatherDisplay:10.37,2013-02-06 14:45:00,
2013-02-06 09:50:00,16.5,13.8,30.24,NNW,340,0.0,0.0,89,0.00,CLR,,0.00,WeatherDisplay:10.37,2013-02-06 14:50:00,
2013-02-06 09:55:00,17.2,14.3,30.24,NNW,340,2.3,2.3,88,0.00,CLR,,0.00,WeatherDisplay:10.37,2013-02-06 14:55:00,
2013-02-06 10:00:00,17.9,14.7,30.24,NNW,340,0.0,0.0,87,0.00,CLR,,0.00,WeatherDisplay:10.37,2013-02-06 15:00:00,
2013-02-06 10:05:00,18.9,15.1,30.23,NNW,340,0.0,0.0,85,0.00,CLR,,0.00,WeatherDisplay:10.37,2013-02-06 15:05:00,
2013-02-06 10:10:00,19.7,15.4,30.23,NNW,340,1.1,1.1,83,0.00,CLR,,0.00,WeatherDisplay:10.37,2013-02-06 15:10:00,
2013-02-06 10:15:00,19.7,14.2,30.23,NNW,336,3.0,3.0,79,0.00,CLR,,0.00,WeatherDisplay:10.37,2013-02-06 15:15:00,
2013-02-06 10:20:00,20.0,14.2,30.23,NNW,336,0.0,0.0,78,0.00,CLR,,0.00,WeatherDisplay:10.37,2013-02-06 15:20:00,
2013-02-06 10:25:00,20.6,14.5,30.23,NNW,336,0.0,0.0,77,0.00,CLR,,0.00,WeatherDisplay:10.37,2013-02-06 15:25:00,
2013-02-06 10:30:00,20.8,14.4,30.23,NNW,336,1.1,1.1,76,0.00,CLR,,0.00,WeatherDisplay:10.37,2013-02-06 15:30:00,
2013-02-06 10:35:00,21.3,14.3,30.23,NNW,329,3.5,3.5,74,0.00,CLR,,0.00,WeatherDisplay:10.37,2013-02-06 15:35:00,
2013-02-06 10:40:00,21.5,13.5,30.23,NW,317,3.5,3.5,71,0.00,CLR,,0.00,WeatherDisplay:10.37,2013-02-06 15:40:00,
2013-02-06 10:45:00,21.5,13.5,30.23,West,275,3.5,3.5,71,0.00,CLR,,0.00,WeatherDisplay:10.37,2013-02-06 15:45:00,
2013-02-06 10:50:00,21.7,13.7,30.24,West,272,1.0,0.0,71,0.00,CLR,,0.00,WeatherDisplay:10.37,2013-02-06 15:50:00,
2013-02-06 10:55:00,21.8,13.8,30.24,West,272,0.0,0.0,71,0.00,CLR,,0.00,WeatherDisplay:10.37,2013-02-06 15:55:00,
2013-02-06 11:00:00,22.2,15.8,30.24,West,273,0.0,0.0,76,0.00,CLR,,0.00,WeatherDisplay:10.37,2013-02-06 16:00:00,
2013-02-06 11:05:00,22.9,13.9,30.25,West,261,4.6,4.6,68,0.00,CLR,,0.00,WeatherDisplay:10.37,2013-02-06 16:05:00,
2013-02-06 11:10:00,22.9,13.2,30.25,West,263,1.1,1.1,66,0.00,CLR,,0.00,WeatherDisplay:10.37,2013-02-06 16:10:00,
2013-02-06 11:15:00,22.9,13.2,30.25,WNW,292,3.5,3.5,66,0.00,CLR,,0.00,WeatherDisplay:10.37,2013-02-06 16:15:00,
2013-02-06 11:20:00,22.9,13.2,30.25,WNW,285,3.5,3.5,66,0.00,CLR,,0.00,WeatherDisplay:10.37,2013-02-06 16:20:00,
2013-02-06 11:25:00,23.0,13.3,30.25,NW,309,0.0,0.0,66,0.00,CLR,,0.00,WeatherDisplay:10.37,2013-02-06 16:25:00,
2013-02-06 11:30:00,23.3,12.9,30.26,WSW,257,3.5,3.5,64,0.00,CLR,,0.00,WeatherDisplay:10.37,2013-02-06 16:30:00,
2013-02-06 11:35:00,23.5,13.5,30.26,NW,323,3.5,3.5,65,0.00,CLR,,0.00,WeatherDisplay:10.37,2013-02-06 16:35:00,
2013-02-06 11:40:00,23.6,13.5,30.25,WSW,244,3.5,3.5,65,0.00,CLR,,0.00,WeatherDisplay:10.37,2013-02-06 16:40:00,
2013-02-06 11:45:00,23.4,13.4,30.25,WSW,256,4.6,4.6,65,0.00,CLR,,0.00,WeatherDisplay:10.37,2013-02-06 16:45:00,
2013-02-06 11:50:00,23.1,13.1,30.25,West,261,3.5,3.5,65,0.00,CLR,,0.00,WeatherDisplay:10.37,2013-02-06 16:50:00,
2013-02-06 11:55:00,23.2,13.2,30.26,NW,309,1.1,1.1,65,0.00,CLR,,0.00,WeatherDisplay:10.37,2013-02-06 16:55:00,
2013-02-06 12:00:00,23.9,13.5,30.26,WNW,288,6.9,6.9,64,0.00,CLR,,0.00,WeatherDisplay:10.37,2013-02-06 17:00:00,
2013-02-06 12:05:00,24.1,13.7,30.26,NW,321,8.1,8.1,64,0.00,CLR,,0.00,WeatherDisplay:10.37,2013-02-06 17:05:00,
2013-02-06 12:10:00,24.2,14.1,30.25,NW,311,3.5,3.5,65,0.00,CLR,,0.00,WeatherDisplay:10.37,2013-02-06 17:10:00,
2013-02-06 12:15:00,24.8,14.3,30.25,WSW,252,2.3,2.3,64,0.00,CLR,,0.00,WeatherDisplay:10.37,2013-02-06 17:15:00,
2013-02-06 12:20:00,24.9,14.1,30.25,West,281,0.0,0.0,63,0.00,CLR,,0.00,WeatherDisplay:10.37,2013-02-06 17:20:00,
2013-02-06 12:25:00,24.5,14.1,30.25,North,10,4.6,4.6,64,0.00,CLR,,0.00,WeatherDisplay:10.37,2013-02-06 17:25:00,
2013-02-06 12:30:00,24.8,14.3,30.25,West,267,2.3,2.3,64,0.00,CLR,,0.00,WeatherDisplay:10.37,2013-02-06 17:30:00,
2013-02-06 12:35:00,24.9,14.1,30.26,West,270,3.5,3.5,63,0.00,CLR,,0.00,WeatherDisplay:10.37,2013-02-06 17:35:00,
2013-02-06 12:40:00,25.1,14.6,30.25,WNW,284,9.2,9.2,64,0.00,CLR,,0.00,WeatherDisplay:10.37,2013-02-06 17:40:00,
2013-02-06 12:45:00,25.0,14.2,30.25,NNW,340,3.5,3.5,63,0.00,CLR,,0.00,WeatherDisplay:10.37,2013-02-06 17:45:00,
2013-02-06 12:50:00,25.0,14.2,30.25,WNW,282,10.4,10.4,63,0.00,CLR,,0.00,WeatherDisplay:10.37,2013-02-06 17:50:00,
2013-02-06 12:55:00,24.9,14.8,30.25,WNW,298,5.0,5.0,65,0.00,CLR,,0.00,WeatherDisplay:10.37,2013-02-06 17:55:00,
2013-02-06 13:00:00,25.1,14.6,30.25,WNW,288,5.8,5.8,64,0.00,CLR,,0.00,WeatherDisplay:10.37,2013-02-06 18:00:00,
2013-02-06 13:05:00,25.2,14.7,30.25,WNW,293,3.5,3.5,64,0.00,CLR,,0.00,WeatherDisplay:10.37,2013-02-06 18:05:00,
2013-02-06 13:10:00,25.5,15.0,30.25,WSW,247,4.6,4.6,64,0.00,CLR,,0.00,WeatherDisplay:10.37,2013-02-06 18:10:00,
2013-02-06 13:15:00,26.0,15.1,30.25,WSW,257,9.2,9.2,63,0.00,CLR,,0.00,WeatherDisplay:10.37,2013-02-06 18:15:00,
2013-02-06 13:20:00,26.7,15.8,30.24,WSW,257,4.6,4.6,63,0.00,CLR,,0.00,WeatherDisplay:10.37,2013-02-06 18:20:00,
2013-02-06 13:25:00,27.1,15.8,30.24,NW,307,3.5,3.5,62,0.00,CLR,,0.00,WeatherDisplay:10.37,2013-02-06 18:25:00,
2013-02-06 13:30:00,27.1,15.8,30.24,WSW,258,4.6,4.6,62,0.00,CLR,,0.00,WeatherDisplay:10.37,2013-02-06 18:30:00,
2013-02-06 13:35:00,27.0,15.7,30.24,NNW,348,5.8,5.8,62,0.00,CLR,,0.00,WeatherDisplay:10.37,2013-02-06 18:35:00,
2013-02-06 13:40:00,26.9,15.6,30.24,WNW,301,11.5,11.5,62,0.00,CLR,,0.00,WeatherDisplay:10.37,2013-02-06 18:40:00,
2013-02-06 13:46:00,26.9,15.6,30.24,NW,321,9.2,9.2,62,0.00,CLR,,0.00,WeatherDisplay:10.37,2013-02-06 18:46:00,
2013-02-06 13:53:00,27.9,16.6,30.24,NW,314,6.9,6.9,62,0.00,CLR,,0.00,WeatherDisplay:10.37,2013-02-06 18:53:00,
2013-02-06 13:58:00,27.6,16.3,30.23,North,355,3.5,0.0,62,0.00,CLR,,0.00,WeatherDisplay:10.37,2013-02-06 18:58:00,
2013-02-06 14:03:00,27.7,16.0,30.23,West,274,5.0,5.0,61,0.00,CLR,,0.00,WeatherDisplay:10.37,2013-02-06 19:03:00,
2013-02-06 14:08:00,27.9,16.2,30.23,WNW,302,4.6,4.6,61,0.00,CLR,,0.00,WeatherDisplay:10.37,2013-02-06 19:08:00,
2013-02-06 14:13:00,28.0,16.3,30.23,NW,309,6.9,6.9,61,0.00,CLR,,0.00,WeatherDisplay:10.37,2013-02-06 19:13:00,
2013-02-06 14:18:00,28.0,16.3,30.23,WNW,299,3.5,3.5,61,0.00,CLR,,0.00,WeatherDisplay:10.37,2013-02-06 19:18:00,
2013-02-06 14:23:00,27.8,15.7,30.22,NW,307,10.4,10.4,60,0.00,CLR,,0.00,WeatherDisplay:10.37,2013-02-06 19:23:00,
2013-02-06 14:28:00,28.1,16.4,30.22,NW,313,2.0,2.0,61,0.00,CLR,,0.01,WeatherDisplay:10.37,2013-02-06 19:28:00,
2013-02-06 14:33:00,28.2,16.1,30.22,WNW,283,6.9,6.9,60,0.01,RA,,0.01,WeatherDisplay:10.37,2013-02-06 19:33:00,
2013-02-06 14:38:00,27.8,15.7,30.22,WNW,290,3.5,3.5,60,0.01,RA,,0.01,WeatherDisplay:10.37,2013-02-06 19:38:00,
2013-02-06 14:43:00,27.8,16.1,30.22,WNW,300,5.8,5.8,61,0.01,CLR,,0.01,WeatherDisplay:10.37,2013-02-06 19:43:00,
2013-02-06 14:48:00,28.2,16.5,30.21,WNW,298,5.8,5.8,61,0.01,CLR,,0.01,WeatherDisplay:10.37,2013-02-06 19:48:00,
2013-02-06 14:53:00,28.5,16.0,30.22,NW,305,6.9,6.9,59,0.01,CLR,,0.01,WeatherDisplay:10.37,2013-02-06 19:53:00,
2013-02-06 14:58:00,28.6,16.5,30.21,West,271,3.0,3.0,60,0.01,CLR,,0.01,WeatherDisplay:10.37,2013-02-06 19:58:00,
2013-02-06 15:03:00,28.8,16.3,30.21,West,281,4.6,4.6,59,0.01,CLR,,0.01,WeatherDisplay:10.37,2013-02-06 20:03:00,
2013-02-06 15:08:00,28.0,15.9,30.20,West,279,3.5,3.5,60,0.01,CLR,,0.01,WeatherDisplay:10.37,2013-02-06 20:08:00,
2013-02-06 15:13:00,28.2,16.1,30.20,NW,325,3.5,3.5,60,0.01,CLR,,0.01,WeatherDisplay:10.37,2013-02-06 20:13:00,
2013-02-06 15:18:00,28.3,16.2,30.20,NNW,340,3.5,3.5,60,0.01,CLR,,0.01,WeatherDisplay:10.37,2013-02-06 20:18:00,
2013-02-06 15:23:00,28.6,16.5,30.20,West,259,3.5,3.5,60,0.01,CLR,,0.01,WeatherDisplay:10.37,2013-02-06 20:23:00,
2013-02-06 15:28:00,29.2,17.4,30.20,West,281,3.5,3.5,61,0.00,CLR,,0.01,WeatherDisplay:10.37,2013-02-06 20:28:00,
2013-02-06 15:33:00,29.3,16.3,30.20,WNW,298,3.5,3.5,58,0.00,CLR,,0.01,WeatherDisplay:10.37,2013-02-06 20:33:00,
2013-02-06 15:38:00,29.1,16.1,30.20,NNW,344,2.3,2.3,58,0.00,CLR,,0.01,WeatherDisplay:10.37,2013-02-06 20:38:00,
2013-02-06 15:43:00,29.1,16.1,30.20,WNW,299,9.2,9.2,58,0.00,CLR,,0.01,WeatherDisplay:10.37,2013-02-06 20:43:00,
2013-02-06 15:48:00,28.7,15.8,30.20,NW,317,3.5,3.5,58,0.00,CLR,,0.01,WeatherDisplay:10.37,2013-02-06 20:48:00,
2013-02-06 15:53:00,29.0,15.7,30.21,WNW,291,5.8,5.8,57,0.00,CLR,,0.01,WeatherDisplay:10.37,2013-02-06 20:53:00,
2013-02-06 15:58:00,29.4,16.0,30.21,WSW,249,6.9,6.9,57,0.00,CLR,,0.01,WeatherDisplay:10.37,2013-02-06 20:58:00,
2013-02-06 16:03:00,29.2,16.2,30.21,NW,315,0.0,0.0,58,0.00,CLR,,0.01,WeatherDisplay:10.37,2013-02-06 21:03:00,
2013-02-06 16:08:00,29.5,16.1,30.22,NNW,342,3.5,3.5,57,0.00,CLR,,0.01,WeatherDisplay:10.37,2013-02-06 21:08:00,
2013-02-06 16:13:00,29.3,16.3,30.22,WSW,254,11.5,11.5,58,0.00,CLR,,0.01,WeatherDisplay:10.37,2013-02-06 21:13:00,
2013-02-06 16:18:00,29.2,16.6,30.22,West,279,0.0,0.0,59,0.00,CLR,,0.01,WeatherDisplay:10.37,2013-02-06 21:18:00,
2013-02-06 16:23:00,29.0,16.1,30.22,WSW,247,3.5,3.5,58,0.00,CLR,,0.01,WeatherDisplay:10.37,2013-02-06 21:23:00,
2013-02-06 16:28:00,28.8,16.3,30.22,WSW,248,1.1,0.0,59,0.00,CLR,,0.01,WeatherDisplay:10.37,2013-02-06 21:28:00,
2013-02-06 16:33:00,28.8,16.3,30.22,WNW,287,3.5,3.5,59,0.00,CLR,,0.01,WeatherDisplay:10.37,2013-02-06 21:33:00,
2013-02-06 16:38:00,28.8,16.3,30.22,West,263,3.5,3.5,59,0.00,CLR,,0.01,WeatherDisplay:10.37,2013-02-06 21:38:00,
2013-02-06 16:43:00,28.9,16.7,30.22,West,261,1.1,0.0,60,0.00,CLR,,0.01,WeatherDisplay:10.37,2013-02-06 21:43:00,
2013-02-06 16:48:00,29.2,17.0,30.22,WNW,302,4.6,4.6,60,0.00,CLR,,0.01,WeatherDisplay:10.37,2013-02-06 21:48:00,
2013-02-06 16:53:00,29.0,16.8,30.23,WNW,291,3.5,3.5,60,0.00,CLR,,0.01,WeatherDisplay:10.37,2013-02-06 21:53:00,
2013-02-06 16:58:00,28.7,16.6,30.23,WNW,302,2.3,2.3,60,0.00,CLR,,0.01,WeatherDisplay:10.37,2013-02-06 21:58:00,
2013-02-06 17:03:00,28.5,16.7,30.23,West,275,1.1,0.0,61,0.00,CLR,,0.01,WeatherDisplay:10.37,2013-02-06 22:03:00,
2013-02-06 17:08:00,28.4,16.7,30.23,WNW,283,2.3,2.3,61,0.00,CLR,,0.01,WeatherDisplay:10.37,2013-02-06 22:08:00,
2013-02-06 17:13:00,28.4,16.7,30.23,WNW,296,1.1,1.1,61,0.00,CLR,,0.01,WeatherDisplay:10.37,2013-02-06 22:13:00,
2013-02-06 17:18:00,28.4,17.0,30.24,WNW,302,3.5,3.5,62,0.00,CLR,,0.01,WeatherDisplay:10.37,2013-02-06 22:18:00,
2013-02-06 17:23:00,28.4,16.7,30.23,West,280,3.5,3.5,61,0.00,CLR,,0.01,WeatherDisplay:10.37,2013-02-06 22:23:00,
2013-02-06 17:28:00,28.2,16.8,30.24,WNW,294,0.0,0.0,62,0.00,CLR,,0.01,WeatherDisplay:10.37,2013-02-06 22:28:00,
2013-02-06 17:33:00,27.9,16.6,30.24,WNW,295,2.3,2.3,62,0.00,CLR,,0.01,WeatherDisplay:10.37,2013-02-06 22:33:00,
2013-02-06 17:38:00,27.8,16.8,30.24,WNW,291,3.5,3.5,63,0.00,CLR,,0.01,WeatherDisplay:10.37,2013-02-06 22:38:00,
2013-02-06 17:43:00,27.6,16.6,30.24,WNW,292,2.3,2.3,63,0.00,CLR,,0.01,WeatherDisplay:10.37,2013-02-06 22:43:00,
2013-02-06 17:48:00,27.4,16.8,30.24,WNW,291,0.0,0.0,64,0.00,CLR,,0.01,WeatherDisplay:10.37,2013-02-06 22:48:00,
2013-02-06 17:53:00,27.2,16.6,30.24,WNW,291,0.0,0.0,64,0.00,CLR,,0.01,WeatherDisplay:10.37,2013-02-06 22:53:00,
2013-02-06 17:58:00,27.1,16.9,30.24,WNW,291,1.1,1.1,65,0.00,CLR,,0.01,WeatherDisplay:10.37,2013-02-06 22:58:00,
2013-02-06 18:03:00,27.0,16.8,30.24,WNW,291,0.0,0.0,65,0.00,CLR,,0.01,WeatherDisplay:10.37,2013-02-06 23:03:00,
2013-02-06 18:08:00,27.0,16.8,30.24,WNW,291,0.0,0.0,65,0.00,CLR,,0.01,WeatherDisplay:10.37,2013-02-06 23:08:00,
2013-02-06 18:13:00,26.9,16.7,30.24,WNW,291,0.0,0.0,65,0.00,CLR,,0.01,WeatherDisplay:10.37,2013-02-06 23:13:00,
2013-02-06 18:18:00,26.7,16.5,30.24,WNW,291,0.0,0.0,65,0.00,CLR,,0.01,WeatherDisplay:10.37,2013-02-06 23:18:00,
2013-02-06 18:23:00,26.6,16.8,30.23,WNW,291,0.0,0.0,66,0.00,CLR,,0.01,WeatherDisplay:10.37,2013-02-06 23:23:00,
2013-02-06 18:28:00,26.5,16.7,30.24,WNW,291,0.0,0.0,66,0.00,CLR,,0.01,WeatherDisplay:10.37,2013-02-06 23:28:00,
2013-02-06 18:33:00,26.3,16.8,30.24,WNW,291,0.0,0.0,67,0.00,CLR,,0.01,WeatherDisplay:10.37,2013-02-06 23:33:00,
2013-02-06 18:38:00,26.0,16.9,30.24,West,259,3.5,3.5,68,0.00,CLR,,0.01,WeatherDisplay:10.37,2013-02-06 23:38:00,
2013-02-06 18:43:00,25.9,17.1,30.24,WSW,252,3.5,3.5,69,0.00,CLR,,0.01,WeatherDisplay:10.37,2013-02-06 23:43:00,
2013-02-06 18:48:00,26.0,17.6,30.24,WSW,246,2.3,2.3,70,0.00,CLR,,0.01,WeatherDisplay:10.37,2013-02-06 23:48:00,
2013-02-06 18:53:00,26.0,17.6,30.24,WSW,246,0.0,0.0,70,0.00,CLR,,0.01,WeatherDisplay:10.37,2013-02-06 23:53:00,
2013-02-06 18:58:00,25.9,17.5,30.23,WSW,246,0.0,0.0,70,0.00,CLR,,0.01,WeatherDisplay:10.37,2013-02-06 23:58:00,
2013-02-06 19:03:00,25.8,17.7,30.24,WSW,244,0.0,0.0,71,0.00,CLR,,0.01,WeatherDisplay:10.37,2013-02-07 00:03:00,
2013-02-06 19:08:00,25.7,17.6,30.24,WSW,244,0.0,0.0,71,0.00,CLR,,0.01,WeatherDisplay:10.37,2013-02-07 00:08:00,
2013-02-06 19:13:00,25.6,17.8,30.24,WSW,244,1.1,0.0,72,0.00,CLR,,0.01,WeatherDisplay:10.37,2013-02-07 00:13:00,
2013-02-06 19:18:00,25.7,17.9,30.24,WSW,244,3.5,3.5,72,0.00,CLR,,0.01,WeatherDisplay:10.37,2013-02-07 00:18:00,
2013-02-06 19:23:00,25.7,17.9,30.24,WSW,243,0.0,0.0,72,0.00,CLR,,0.01,WeatherDisplay:10.37,2013-02-07 00:23:00,
2013-02-06 19:28:00,25.7,17.9,30.24,WSW,241,3.5,3.5,72,0.00,CLR,,0.01,WeatherDisplay:10.37,2013-02-07 00:28:00,
2013-02-06 19:33:00,25.8,18.0,30.24,WSW,241,0.0,0.0,72,0.00,CLR,,0.01,WeatherDisplay:10.37,2013-02-07 00:33:00,
2013-02-06 19:38:00,25.8,18.0,30.24,WSW,240,0.0,0.0,72,0.00,CLR,,0.01,WeatherDisplay:10.37,2013-02-07 00:38:00,
2013-02-06 19:43:00,25.8,18.0,30.24,WSW,240,0.0,0.0,72,0.00,CLR,,0.01,WeatherDisplay:10.37,2013-02-07 00:43:00,
2013-02-06 19:48:00,25.7,18.2,30.24,WSW,240,0.0,0.0,73,0.00,CLR,,0.01,WeatherDisplay:10.37,2013-02-07 00:48:00,
2013-02-06 19:53:00,25.7,18.2,30.24,WSW,240,0.0,0.0,73,0.00,CLR,,0.01,WeatherDisplay:10.37,2013-02-07 00:53:00,
2013-02-06 19:58:00,25.5,18.0,30.24,WSW,240,0.0,0.0,73,0.00,CLR,,0.01,WeatherDisplay:10.37,2013-02-07 00:58:00,
2013-02-06 20:04:00,25.4,17.9,30.24,WSW,240,0.0,0.0,73,0.00,CLR,,0.01,WeatherDisplay:10.37,2013-02-07 01:04:00,
2013-02-06 20:09:00,25.2,17.8,30.24,WSW,240,0.0,0.0,73,0.00,CLR,,0.01,WeatherDisplay:10.37,2013-02-07 01:09:00,
2013-02-06 20:15:00,25.0,17.9,30.24,WSW,240,0.0,0.0,74,0.00,CLR,,0.01,WeatherDisplay:10.37,2013-02-07 01:15:00,
2013-02-06 20:20:00,24.9,17.8,30.24,WSW,240,0.0,0.0,74,0.00,CLR,,0.01,WeatherDisplay:10.37,2013-02-07 01:20:00,
2013-02-06 20:25:00,24.9,17.8,30.24,WSW,240,0.0,0.0,74,0.00,CLR,,0.01,WeatherDisplay:10.37,2013-02-07 01:25:00,
2013-02-06 20:30:00,24.9,17.8,30.24,WSW,240,0.0,0.0,74,0.00,CLR,,0.01,WeatherDisplay:10.37,2013-02-07 01:30:00,
2013-02-06 20:35:00,25.0,17.9,30.23,WSW,240,0.0,0.0,74,0.00,CLR,,0.01,WeatherDisplay:10.37,2013-02-07 01:35:00,
2013-02-06 20:40:00,25.0,18.2,30.23,WSW,240,0.0,0.0,75,0.00,CLR,,0.01,WeatherDisplay:10.37,2013-02-07 01:40:00,
2013-02-06 20:45:00,25.0,18.2,30.23,WSW,240,0.0,0.0,75,0.00,CLR,,0.01,WeatherDisplay:10.37,2013-02-07 01:45:00,
2013-02-06 20:50:00,25.1,18.3,30.22,WSW,240,0.0,0.0,75,0.00,CLR,,0.01,WeatherDisplay:10.37,2013-02-07 01:50:00,
2013-02-06 20:55:00,25.2,18.4,30.23,WSW,239,0.0,0.0,75,0.00,CLR,,0.01,WeatherDisplay:10.37,2013-02-07 01:55:00,
2013-02-06 21:00:00,25.3,18.5,30.23,WSW,237,1.1,0.0,75,0.00,CLR,,0.01,WeatherDisplay:10.37,2013-02-07 02:00:00,
2013-02-06 21:05:00,25.4,18.6,30.23,SW,234,3.5,3.5,75,0.00,CLR,,0.01,WeatherDisplay:10.37,2013-02-07 02:05:00,
2013-02-06 21:10:00,25.4,18.6,30.23,SW,232,0.0,0.0,75,0.00,CLR,,0.01,WeatherDisplay:10.37,2013-02-07 02:10:00,
2013-02-06 21:15:00,25.6,18.8,30.23,SW,221,2.3,2.3,75,0.00,CLR,,0.01,WeatherDisplay:10.37,2013-02-07 02:15:00,
2013-02-06 21:20:00,25.6,18.5,30.23,SW,214,0.0,0.0,74,0.00,CLR,,0.01,WeatherDisplay:10.37,2013-02-07 02:20:00,
2013-02-06 21:25:00,25.7,18.9,30.23,SSW,211,3.5,3.5,75,0.00,CLR,,0.01,WeatherDisplay:10.37,2013-02-07 02:25:00,
2013-02-06 21:30:00,25.7,18.9,30.23,SSW,211,0.0,0.0,75,0.00,CLR,,0.01,WeatherDisplay:10.37,2013-02-07 02:30:00,
2013-02-06 21:35:00,25.7,18.9,30.23,SSW,211,2.3,2.3,75,0.00,CLR,,0.01,WeatherDisplay:10.37,2013-02-07 02:35:00,
2013-02-06 21:40:00,25.7,18.6,30.23,South,188,0.0,0.0,74,0.00,CLR,,0.01,WeatherDisplay:10.37,2013-02-07 02:40:00,
2013-02-06 21:45:00,25.8,18.7,30.23,South,186,2.3,2.3,74,0.00,CLR,,0.01,WeatherDisplay:10.37,2013-02-07 02:45:00,
2013-02-06 21:50:00,25.7,18.6,30.23,South,186,3.5,3.5,74,0.00,CLR,,0.01,WeatherDisplay:10.37,2013-02-07 02:50:00,
2013-02-06 21:55:00,25.8,19.0,30.23,South,187,1.0,1.0,75,0.00,CLR,,0.01,WeatherDisplay:10.37,2013-02-07 02:55:00,
2013-02-06 22:00:00,25.7,18.9,30.23,South,187,0.0,0.0,75,0.00,CLR,,0.01,WeatherDisplay:10.37,2013-02-07 03:00:00,
2013-02-06 22:05:00,25.7,18.6,30.23,South,187,0.0,0.0,74,0.00,CLR,,0.01,WeatherDisplay:10.37,2013-02-07 03:05:00,
2013-02-06 22:10:00,25.7,18.9,30.23,South,186,2.3,2.3,75,0.00,CLR,,0.01,WeatherDisplay:10.37,2013-02-07 03:10:00,
2013-02-06 22:15:00,25.7,18.9,30.23,South,186,0.0,0.0,75,0.00,CLR,,0.01,WeatherDisplay:10.37,2013-02-07 03:15:00,
2013-02-06 22:20:00,25.7,18.9,30.24,South,186,0.0,0.0,75,0.00,CLR,,0.01,WeatherDisplay:10.37,2013-02-07 03:20:00,
2013-02-06 22:25:00,25.7,18.9,30.24,South,186,0.0,0.0,75,0.00,CLR,,0.01,WeatherDisplay:10.37,2013-02-07 03:25:00,
2013-02-06 22:30:00,25.8,19.0,30.24,South,186,0.0,0.0,75,0.00,CLR,,0.01,WeatherDisplay:10.37,2013-02-07 03:30:00,
2013-02-06 22:35:00,25.7,18.6,30.23,South,186,0.0,0.0,74,0.00,CLR,,0.01,WeatherDisplay:10.37,2013-02-07 03:35:00,
2013-02-06 22:40:00,25.8,19.0,30.24,South,186,1.1,1.1,75,0.00,CLR,,0.01,WeatherDisplay:10.37,2013-02-07 03:40:00,
2013-02-06 22:45:00,25.7,18.9,30.23,South,187,0.0,0.0,75,0.00,CLR,,0.01,WeatherDisplay:10.37,2013-02-07 03:45:00,
2013-02-06 22:50:00,25.8,19.0,30.23,South,183,1.1,0.0,75,0.00,CLR,,0.01,WeatherDisplay:10.37,2013-02-07 03:50:00,
2013-02-06 22:55:00,25.8,19.0,30.23,South,182,2.3,2.3,75,0.00,CLR,,0.01,WeatherDisplay:10.37,2013-02-07 03:55:00,
2013-02-06 23:00:00,25.7,18.9,30.23,South,184,2.3,2.3,75,0.00,CLR,,0.01,WeatherDisplay:10.37,2013-02-07 04:00:00,
2013-02-06 23:05:00,25.7,19.2,30.23,SW,216,1.0,0.0,76,0.00,CLR,,0.01,WeatherDisplay:10.37,2013-02-07 04:05:00,
2013-02-06 23:10:00,25.6,19.4,30.23,SSW,213,0.0,0.0,77,0.00,CLR,,0.01,WeatherDisplay:10.37,2013-02-07 04:10:00,
2013-02-06 23:15:00,25.5,19.6,30.23,SW,215,4.0,4.0,78,0.00,CLR,,0.01,WeatherDisplay:10.37,2013-02-07 04:15:00,
2013-02-06 23:20:00,25.4,19.8,30.23,SSW,203,3.5,3.5,79,0.00,CLR,,0.01,WeatherDisplay:10.37,2013-02-07 04:20:00,
2013-02-06 23:25:00,25.4,20.1,30.23,SSW,199,2.3,2.3,80,0.00,CLR,,0.01,WeatherDisplay:10.37,2013-02-07 04:25:00,
2013-02-06 23:30:00,25.3,20.0,30.22,SSW,194,1.1,1.1,80,0.00,CLR,,0.01,WeatherDisplay:10.37,2013-02-07 04:30:00,
2013-02-06 23:35:00,25.1,20.1,30.22,South,187,2.3,2.3,81,0.00,CLR,,0.01,WeatherDisplay:10.37,2013-02-07 04:35:00,
2013-02-06 23:40:00,24.9,20.2,30.22,South,188,3.5,3.5,82,0.00,CLR,,0.01,WeatherDisplay:10.37,2013-02-07 04:40:00,
2013-02-06 23:45:00,24.9,20.5,30.22,South,189,0.0,0.0,83,0.00,CLR,,0.01,WeatherDisplay:10.37,2013-02-07 04:45:00,
2013-02-06 23:50:00,24.8,20.4,30.22,South,187,2.3,0.0,83,0.00,CLR,,0.01,WeatherDisplay:10.37,2013-02-07 04:50:00,
2013-02-06 23:55:00,24.8,20.7,30.22,South,187,0.0,0.0,84,0.00,CLR,,0.01,WeatherDisplay:10.37,2013-02-07 04:55:00,